TAF LFBD
AMD LFBD 080058Z 0800/0906 26010KT 9999 BKN035 TX10/0813Z TN03/0904Z TEMPO 0800/0808 26015G25KT 4000 SHRA FEW015CB BKN020TCU BECMG 0806/0808 29010KT TEMPO 0811/0822 26015G25KT 4000 SHRA FEW015CB BKN020TCU PROB30 TEMPO 0811/0815 30020G30KT 1500 TSRA BKN015CB TEMPO 0802/0806 3000 SHRA BKN025TCU=
METAR LFBD
LFBD 080330Z AUTO 21008KT CAVOK 06/06 Q1003 TEMPO 26015G25KT 3000 SHRA BKN025TCU=
LFBD 080300Z AUTO 20009KT 9999 FEW012/// BKN068/// BKN120/// ///TCU 06/06 Q1004 TEMPO 26015G25KT 3000 SHRA=
LFBD 080230Z AUTO 21006KT 9999 -RA BKN027 BKN056 BKN110 06/06 Q1004 TEMPO 26015G25KT 3000 SHRA BKN025TCU=
LFBD 080200Z AUTO 24008KT 9999 SCT031 BKN041 BKN100 07/06 Q1004 TEMPO 26015G25KT 3000 SHRA BKN025TCU=
LFBD 080130Z AUTO 21009KT 180V240 9999 -RA FEW014/// SCT032/// BKN056/// ///TCU 07/06 Q1004 TEMPO 26015G25KT 3000 SHRA=
WC LFBD
WS LFBD
WV LFBD